Time;durP1;ratioP1;P1;durP2;ratioP2;P2;SDS_P1;SDS_P2;PMS_P1;PMS_P2;Temp;Humidity;BMP_temperature;BMP_pressure;BME280_temperature;BME280_humidity;BME280_pressure;Samples;Min_cycle;Max_cycle;Signal;HPM_P1;HPM_P2
2022/01/10 00:01:04;;;;;;;29.50;17.33;;;1.40;99.90;;;;;;5053340;28;20195;-64
2022/01/10 00:03:30;;;;;;;22.10;18.00;;;1.40;99.90;;;;;;5053088;28;20628;-65
2022/01/10 00:05:55;;;;;;;18.23;15.87;;;1.40;99.90;;;;;;5053289;28;20301;-65
2022/01/10 00:08:21;;;;;;;25.03;14.70;;;1.30;99.90;;;;;;5053384;28;20209;-65
2022/01/10 00:10:47;;;;;;;18.83;13.13;;;1.30;99.90;;;;;;5053148;28;20194;-66
2022/01/10 00:13:13;;;;;;;27.10;19.10;;;1.20;99.90;;;;;;5052992;28;20174;-65
2022/01/10 00:15:39;;;;;;;31.13;20.30;;;1.20;99.90;;;;;;5052967;28;20182;-65
2022/01/10 00:18:05;;;;;;;31.23;21.97;;;1.10;99.90;;;;;;5053263;28;20301;-66
2022/01/10 00:20:30;;;;;;;39.43;21.40;;;1.10;99.90;;;;;;5052960;28;20253;-64
2022/01/10 00:22:56;;;;;;;33.73;22.20;;;1.00;99.90;;;;;;5053124;28;20174;-64
2022/01/10 00:25:23;;;;;;;28.30;18.50;;;1.00;99.90;;;;;;5052678;28;20280;-65
2022/01/10 00:27:53;;;;;;;30.37;18.60;;;1.00;99.90;;;;;;5053075;28;20304;-66
2022/01/10 00:30:19;;;;;;;29.27;16.33;;;1.00;99.90;;;;;;5052784;28;20167;-65
2022/01/10 00:32:46;;;;;;;21.27;16.93;;;1.00;99.90;;;;;;5052541;28;20207;-66
2022/01/10 00:35:12;;;;;;;18.40;16.17;;;0.90;99.90;;;;;;5052490;28;20187;-64
2022/01/10 00:37:41;;;;;;;23.77;15.77;;;0.80;99.90;;;;;;5052810;28;20348;-66
2022/01/10 00:40:08;;;;;;;19.23;14.70;;;0.70;99.90;;;;;;5052602;28;20171;-66
2022/01/10 00:42:33;;;;;;;18.27;15.97;;;0.70;99.90;;;;;;5052297;28;20194;-65
2022/01/10 00:45:12;;;;;;;24.23;15.50;;;0.60;99.90;;;;;;5051133;28;20199;-65
2022/01/10 00:47:38;;;;;;;26.83;15.73;;;0.60;99.90;;;;;;5052938;28;20170;-65
2022/01/10 00:50:04;;;;;;;21.40;14.87;;;0.50;99.90;;;;;;5052448;28;20186;-66
2022/01/10 00:52:30;;;;;;;21.63;15.33;;;0.40;99.90;;;;;;5052171;28;20660;-65
2022/01/10 00:54:55;;;;;;;17.23;13.97;;;0.50;99.90;;;;;;5050921;28;20297;-66
2022/01/10 00:57:21;;;;;;;18.13;15.10;;;0.40;99.90;;;;;;5052258;28;20175;-65
2022/01/10 00:59:46;;;;;;;29.93;14.07;;;0.40;99.90;;;;;;5050880;28;20183;-66
2022/01/10 01:02:12;;;;;;;22.90;14.70;;;0.40;99.90;;;;;;5052152;28;20567;-66
2022/01/10 01:04:38;;;;;;;22.73;13.93;;;0.40;99.90;;;;;;5051291;28;20206;-66
2022/01/10 01:07:03;;;;;;;19.80;13.67;;;0.40;99.90;;;;;;5052312;28;20174;-67
2022/01/10 01:09:31;;;;;;;16.33;13.57;;;0.40;99.90;;;;;;5051731;28;20178;-66
2022/01/10 01:15:18;;;;;;;21.50;14.63;;;0.30;99.90;;;;;;5051797;28;20195;-67
2022/01/10 01:17:25;;;;;;;16.63;14.93;;;0.30;99.90;;;;;;5041211;28;20672;-66
2022/01/10 01:20:05;;;;;;;16.33;14.70;;;0.30;99.90;;;;;;5051910;28;20174;-66
2022/01/10 01:25:15;;;;;;;16.80;14.93;;;0.20;99.90;;;;;;5051905;28;20231;-67
2022/01/10 01:27:42;;;;;;;22.90;14.83;;;0.20;99.90;;;;;;5051661;28;20175;-66
2022/01/10 01:30:10;;;;;;;21.30;16.67;;;0.10;99.90;;;;;;5051597;28;20562;-67
2022/01/10 01:32:36;;;;;;;17.77;15.97;;;0.10;99.90;;;;;;5051352;28;20170;-66
2022/01/10 01:35:06;;;;;;;20.03;15.90;;;0.10;99.90;;;;;;5051521;28;20204;-66
2022/01/10 01:37:31;;;;;;;28.33;16.40;;;0.10;99.90;;;;;;5051516;28;20171;-66
2022/01/10 01:39:57;;;;;;;16.03;13.87;;;0.10;99.90;;;;;;5051250;28;20221;-66
2022/01/10 01:42:34;;;;;;;18.07;13.33;;;0.10;99.90;;;;;;5051159;28;20253;-66
2022/01/10 01:45:01;;;;;;;16.77;15.00;;;0.00;99.90;;;;;;5051592;28;20186;-67
2022/01/10 01:47:26;;;;;;;18.73;13.93;;;0.00;99.90;;;;;;5049969;28;20170;-67
2022/01/10 01:49:52;;;;;;;24.03;13.67;;;0.10;99.90;;;;;;5051265;28;20178;-66
2022/01/10 01:52:18;;;;;;;25.47;14.70;;;0.10;99.90;;;;;;5051366;28;20182;-66
2022/01/10 01:54:43;;;;;;;15.17;13.70;;;0.20;99.90;;;;;;5051079;28;20206;-66
2022/01/10 01:57:09;;;;;;;18.97;14.00;;;0.20;99.90;;;;;;5051372;28;20254;-66
2022/01/10 01:59:36;;;;;;;17.87;14.10;;;0.20;99.90;;;;;;5050858;28;20272;-67
2022/01/10 02:02:03;;;;;;;16.80;13.87;;;0.20;99.90;;;;;;5056561;28;20198;-66
2022/01/10 02:04:28;;;;;;;18.47;13.97;;;0.20;99.90;;;;;;5069975;28;20186;-66
2022/01/10 02:06:54;;;;;;;19.13;14.43;;;0.20;99.90;;;;;;5071384;28;20249;-67
2022/01/10 02:09:20;;;;;;;18.63;14.50;;;0.20;99.90;;;;;;5051210;28;20276;-66
2022/01/10 02:11:45;;;;;;;20.47;15.20;;;0.30;99.90;;;;;;5051206;28;20258;-66
2022/01/10 02:14:11;;;;;;;17.73;13.87;;;0.30;99.90;;;;;;5050717;28;20202;-67
2022/01/10 02:16:43;;;;;;;22.37;15.87;;;0.30;99.90;;;;;;5051157;28;20170;-66
2022/01/10 02:19:09;;;;;;;22.87;14.37;;;0.40;99.90;;;;;;5051043;28;20629;-65
2022/01/10 02:21:36;;;;;;;17.20;14.80;;;0.40;99.90;;;;;;5051190;28;20225;-66
2022/01/10 02:24:03;;;;;;;21.57;15.37;;;0.40;99.90;;;;;;5051036;28;20194;-66
2022/01/10 02:26:29;;;;;;;18.80;14.33;;;0.50;99.90;;;;;;5049403;28;20205;-67
2022/01/10 02:28:54;;;;;;;19.97;15.93;;;0.50;99.90;;;;;;5050985;28;20639;-66
2022/01/10 02:31:20;;;;;;;20.60;14.70;;;0.50;99.90;;;;;;5050973;28;20179;-65
2022/01/10 02:33:48;;;;;;;17.57;14.63;;;0.50;99.90;;;;;;5050671;28;20248;-67
2022/01/10 02:36:21;;;;;;;19.50;14.60;;;0.60;99.90;;;;;;5050944;28;20175;-67
2022/01/10 02:38:49;;;;;;;22.43;13.60;;;0.60;99.90;;;;;;5050852;28;20187;-67
2022/01/10 02:41:31;;;;;;;22.63;13.50;;;0.60;99.90;;;;;;5050849;28;20233;-65
2022/01/10 02:43:58;;;;;;;20.30;12.80;;;0.60;99.90;;;;;;5050644;28;20755;-66
2022/01/10 02:46:25;;;;;;;23.23;13.90;;;0.60;99.90;;;;;;5050881;28;20250;-66
2022/01/10 02:48:51;;;;;;;14.93;12.33;;;0.60;99.90;;;;;;5050765;28;20190;-66
2022/01/10 02:51:17;;;;;;;13.67;12.33;;;0.60;99.90;;;;;;5050460;28;20229;-65
2022/01/10 02:53:42;;;;;;;20.20;14.60;;;0.50;99.90;;;;;;5050114;28;20248;-66
2022/01/10 02:56:08;;;;;;;16.47;14.67;;;0.40;99.90;;;;;;5050891;28;20644;-67
2022/01/10 02:58:34;;;;;;;16.30;14.47;;;0.30;99.90;;;;;;5050473;28;20209;-66
2022/01/10 03:01:00;;;;;;;19.10;14.30;;;0.20;99.90;;;;;;5050799;28;20191;-66
2022/01/10 03:03:27;;;;;;;29.10;16.10;;;0.20;99.90;;;;;;5049699;28;20171;-66
2022/01/10 03:05:53;;;;;;;20.93;15.13;;;0.20;99.90;;;;;;5050828;28;20175;-66
2022/01/10 03:08:19;;;;;;;15.57;14.07;;;0.10;99.90;;;;;;5050500;28;20265;-67
2022/01/10 03:10:44;;;;;;;27.87;14.13;;;0.10;99.90;;;;;;5050653;28;20713;-67
2022/01/10 03:13:10;;;;;;;25.00;14.73;;;0.00;99.90;;;;;;5050179;28;20229;-66
2022/01/10 03:15:36;;;;;;;22.00;15.27;;;0.00;99.90;;;;;;5050427;28;20171;-66
2022/01/10 03:18:01;;;;;;;22.77;14.03;;;0.00;99.90;;;;;;5053698;28;20175;-66
2022/01/10 03:20:27;;;;;;;27.07;14.80;;;-0.10;99.90;;;;;;5053884;28;20658;-67
2022/01/10 03:22:53;;;;;;;25.27;12.60;;;-0.10;99.90;;;;;;5053813;28;20627;-67
2022/01/10 03:25:19;;;;;;;16.37;13.60;;;-0.10;99.90;;;;;;5053779;28;20546;-66
2022/01/10 03:27:45;;;;;;;25.37;14.93;;;-0.10;99.90;;;;;;5054577;28;20182;-67
2022/01/10 03:30:11;;;;;;;17.17;14.47;;;-0.10;99.90;;;;;;5054023;28;20175;-66
2022/01/10 03:32:37;;;;;;;22.43;15.70;;;-0.10;99.90;;;;;;5053626;28;20186;-66
2022/01/10 03:35:05;;;;;;;21.83;14.73;;;-0.10;99.90;;;;;;5053774;28;20202;-66
2022/01/10 03:37:31;;;;;;;19.70;14.90;;;-0.10;99.90;;;;;;5052997;28;20201;-66
2022/01/10 03:39:57;;;;;;;17.73;15.13;;;-0.10;99.90;;;;;;5052314;28;20280;-66
2022/01/10 03:42:22;;;;;;;16.90;14.23;;;-0.10;99.90;;;;;;5053499;28;20207;-66
2022/01/10 03:44:48;;;;;;;15.77;14.30;;;-0.10;99.90;;;;;;5053425;28;20765;-65
2022/01/10 03:47:16;;;;;;;17.17;14.20;;;-0.10;99.90;;;;;;5052417;28;20183;-66
2022/01/10 03:49:42;;;;;;;16.93;15.20;;;-0.10;99.90;;;;;;5053300;28;20182;-67
2022/01/10 03:52:07;;;;;;;19.83;14.47;;;-0.10;99.90;;;;;;5053632;28;20191;-67
2022/01/10 03:54:33;;;;;;;17.50;13.87;;;-0.10;99.90;;;;;;5082979;22;20613;-65
2022/01/10 03:56:59;;;;;;;21.23;14.17;;;-0.10;99.90;;;;;;5073928;28;20206;-65
2022/01/10 03:59:25;;;;;;;14.97;13.37;;;-0.20;99.90;;;;;;5068636;28;20254;-65
2022/01/10 04:01:51;;;;;;;17.83;14.07;;;-0.10;99.90;;;;;;5035541;28;20702;-65
2022/01/10 04:04:17;;;;;;;15.43;13.83;;;-0.20;99.90;;;;;;5056272;28;20198;-65
2022/01/10 04:06:43;;;;;;;22.10;14.47;;;-0.30;99.90;;;;;;5073455;28;20202;-65
2022/01/10 04:09:09;;;;;;;19.37;12.47;;;-0.30;99.90;;;;;;5073148;28;20201;-65
2022/01/10 04:11:36;;;;;;;13.17;11.97;;;-0.30;99.90;;;;;;5073132;28;20212;-65
2022/01/10 04:14:01;;;;;;;16.67;13.47;;;-0.30;99.90;;;;;;5055052;28;20327;-65
2022/01/10 04:16:27;;;;;;;15.27;12.60;;;-0.30;99.90;;;;;;5072995;28;20186;-65
2022/01/10 04:18:52;;;;;;;17.73;13.27;;;-0.30;99.90;;;;;;5073255;28;20611;-65
2022/01/10 04:21:18;;;;;;;17.83;13.53;;;-0.30;99.90;;;;;;5072755;28;20251;-65
2022/01/10 04:23:44;;;;;;;21.37;14.30;;;-0.30;99.90;;;;;;5072567;28;20228;-65
2022/01/10 04:26:09;;;;;;;17.00;13.00;;;-0.40;99.90;;;;;;5072873;28;20220;-65
2022/01/10 04:28:35;;;;;;;16.87;13.87;;;-0.30;99.90;;;;;;5072512;28;20193;-64
2022/01/10 04:31:03;;;;;;;15.67;13.43;;;-0.30;99.90;;;;;;5072644;28;20587;-64
2022/01/10 04:33:29;;;;;;;18.40;13.33;;;-0.30;99.90;;;;;;5054492;28;20210;-64
2022/01/10 04:35:56;;;;;;;19.63;13.20;;;-0.10;99.90;;;;;;5072604;28;20212;-64
2022/01/10 04:38:22;;;;;;;18.00;13.80;;;0.00;99.90;;;;;;5072477;28;20557;-65
2022/01/10 04:40:48;;;;;;;21.40;14.63;;;0.20;99.90;;;;;;5072891;28;20193;-65
2022/01/10 04:43:14;;;;;;;31.33;14.57;;;0.30;99.90;;;;;;5072231;28;20162;-64
2022/01/10 04:45:40;;;;;;;19.07;13.50;;;0.50;99.90;;;;;;5071124;28;20194;-64
2022/01/10 04:48:05;;;;;;;20.13;13.07;;;0.60;99.90;;;;;;5072368;28;20654;-65
2022/01/10 04:53:12;;;;;;;23.17;14.80;;;0.90;99.90;;;;;;5072052;28;20170;-65
2022/01/10 04:55:37;;;;;;;16.63;13.07;;;1.00;99.90;;;;;;5072118;28;20732;-64
2022/01/10 04:58:03;;;;;;;19.37;14.00;;;1.00;99.90;;;;;;5054334;28;20182;-64
2022/01/10 05:00:29;;;;;;;15.80;12.70;;;1.10;99.90;;;;;;5054532;28;20175;-65
2022/01/10 05:02:55;;;;;;;18.17;13.07;;;1.20;99.90;;;;;;5072285;28;20562;-62
2022/01/10 05:05:21;;;;;;;15.30;13.73;;;1.20;99.90;;;;;;5071591;28;20230;-64
2022/01/10 05:07:47;;;;;;;20.47;13.37;;;1.20;99.90;;;;;;5072594;28;20174;-65
2022/01/10 05:10:12;;;;;;;22.93;13.87;;;1.30;99.90;;;;;;5072023;28;20173;-64
2022/01/10 05:12:38;;;;;;;17.83;13.53;;;1.40;99.90;;;;;;5071809;28;20208;-64
2022/01/10 05:15:05;;;;;;;19.90;14.13;;;1.50;99.90;;;;;;5072114;28;20197;-64
2022/01/10 05:17:30;;;;;;;20.90;13.30;;;1.60;99.90;;;;;;5053910;28;20186;-64
2022/01/10 05:19:56;;;;;;;14.80;12.60;;;1.70;99.90;;;;;;5071780;28;20247;-63
2022/01/10 05:22:22;;;;;;;16.43;13.43;;;1.70;99.90;;;;;;5071785;28;20667;-64
2022/01/10 05:24:47;;;;;;;17.20;12.73;;;1.60;99.90;;;;;;5071661;28;20213;-64
2022/01/10 05:27:13;;;;;;;15.23;13.60;;;1.60;99.90;;;;;;5072022;28;20170;-64
2022/01/10 05:29:39;;;;;;;19.00;12.93;;;1.70;99.90;;;;;;5071367;28;20186;-64
2022/01/10 05:32:04;;;;;;;19.47;13.23;;;1.70;99.90;;;;;;5071868;28;20174;-64
2022/01/10 05:34:30;;;;;;;15.70;13.30;;;1.80;99.90;;;;;;5071281;28;20691;-64
2022/01/10 05:36:56;;;;;;;16.90;12.37;;;1.80;99.90;;;;;;5071726;28;20177;-65
2022/01/10 05:39:21;;;;;;;18.03;13.20;;;1.80;99.90;;;;;;5070596;28;20292;-65
2022/01/10 05:41:47;;;;;;;17.57;13.40;;;1.80;99.90;;;;;;5071619;28;20564;-64
2022/01/10 05:44:13;;;;;;;19.77;12.60;;;1.90;99.90;;;;;;5071171;28;20252;-64
2022/01/10 05:46:41;;;;;;;18.37;13.33;;;1.90;99.90;;;;;;5071627;28;20174;-65
2022/01/10 05:49:07;;;;;;;17.23;13.67;;;1.90;99.90;;;;;;5071353;28;20589;-64
2022/01/10 05:51:34;;;;;;;15.00;13.47;;;1.80;99.90;;;;;;5071443;28;20178;-64
2022/01/10 05:54:05;;;;;;;22.00;12.97;;;1.80;99.90;;;;;;5070933;28;20301;-65
2022/01/10 05:56:32;;;;;;;16.77;12.70;;;1.80;99.90;;;;;;5070723;28;20174;-65
2022/01/10 05:58:58;;;;;;;20.77;14.20;;;1.90;99.90;;;;;;5071294;28;20182;-64
2022/01/10 06:01:24;;;;;;;17.97;12.60;;;1.90;99.90;;;;;;5071322;28;20222;-65
2022/01/10 06:03:50;;;;;;;16.97;12.80;;;1.90;99.90;;;;;;5070708;28;20166;-65
2022/01/10 06:06:16;;;;;;;15.10;13.43;;;1.90;99.90;;;;;;5065523;28;20169;-64
2022/01/10 06:08:41;;;;;;;13.77;12.30;;;1.90;99.90;;;;;;5091520;28;20212;-64
2022/01/10 06:11:07;;;;;;;17.93;14.43;;;1.90;99.90;;;;;;5080156;28;20174;-65
2022/01/10 06:13:32;;;;;;;14.83;13.30;;;1.90;99.90;;;;;;5071350;28;20259;-64
2022/01/10 06:15:58;;;;;;;14.70;13.20;;;1.90;99.90;;;;;;5071266;28;20200;-64
2022/01/10 06:18:24;;;;;;;15.67;12.73;;;1.90;99.90;;;;;;5071243;28;20166;-65
2022/01/10 06:20:50;;;;;;;17.30;13.03;;;1.90;99.90;;;;;;5071142;28;20255;-64
2022/01/10 06:23:16;;;;;;;15.17;13.33;;;1.80;99.90;;;;;;5071068;28;20170;-64
2022/01/10 06:25:42;;;;;;;14.73;13.10;;;1.80;99.90;;;;;;5070689;28;20204;-64
2022/01/10 06:28:08;;;;;;;15.07;12.73;;;1.90;99.90;;;;;;5053121;28;20661;-65
2022/01/10 06:30:34;;;;;;;23.90;12.43;;;1.90;99.90;;;;;;5052945;28;20174;-64
2022/01/10 06:33:00;;;;;;;18.17;14.27;;;1.80;99.90;;;;;;5071209;28;20623;-64
2022/01/10 06:35:26;;;;;;;17.67;12.63;;;1.90;99.90;;;;;;5070636;28;20205;-64
2022/01/10 06:37:52;;;;;;;20.37;12.50;;;1.80;99.90;;;;;;5070806;28;20174;-64
2022/01/10 06:40:17;;;;;;;14.90;12.70;;;1.70;99.90;;;;;;5071178;28;20166;-65
2022/01/10 06:42:43;;;;;;;16.40;12.87;;;1.60;99.90;;;;;;5070360;28;20281;-64
2022/01/10 06:45:10;;;;;;;12.63;11.43;;;1.60;99.90;;;;;;5070995;28;20190;-64
2022/01/10 06:47:37;;;;;;;20.13;13.03;;;1.50;99.90;;;;;;5070440;28;20171;-64
2022/01/10 06:50:03;;;;;;;16.63;12.57;;;1.50;99.90;;;;;;5071129;28;20162;-64
2022/01/10 06:52:29;;;;;;;20.87;13.00;;;1.40;99.90;;;;;;5074599;28;20517;-64
2022/01/10 06:54:55;;;;;;;17.90;13.20;;;1.40;99.90;;;;;;5056545;28;20228;-64
2022/01/10 06:57:20;;;;;;;15.90;12.77;;;1.30;99.90;;;;;;5056683;28;20201;-65
2022/01/10 06:59:47;;;;;;;13.83;12.43;;;1.20;99.90;;;;;;5074351;28;20640;-65
2022/01/10 07:02:13;;;;;;;16.87;12.40;;;1.10;99.90;;;;;;5074489;28;20194;-64
2022/01/10 07:04:38;;;;;;;13.17;12.07;;;1.10;99.90;;;;;;5073110;28;20209;-64
2022/01/10 07:07:05;;;;;;;28.10;15.00;;;1.00;99.90;;;;;;5056048;28;20220;-65
2022/01/10 07:09:32;;;;;;;29.87;18.70;;;0.90;99.90;;;;;;5074040;28;20177;-65
2022/01/10 07:11:58;;;;;;;37.23;20.93;;;0.80;99.90;;;;;;5074283;28;20166;-64
2022/01/10 07:14:23;;;;;;;19.90;14.13;;;0.70;99.90;;;;;;5074165;28;20198;-64
2022/01/10 07:16:50;;;;;;;17.37;14.77;;;0.70;99.90;;;;;;5074467;28;20513;-65
2022/01/10 07:19:17;;;;;;;20.17;13.13;;;0.70;99.90;;;;;;5074061;28;20594;-65
2022/01/10 07:21:43;;;;;;;14.70;13.13;;;0.80;99.90;;;;;;5074015;28;20285;-65
2022/01/10 07:24:09;;;;;;;22.47;12.43;;;0.70;99.90;;;;;;5055672;28;20292;-65
2022/01/10 07:26:35;;;;;;;18.17;11.37;;;0.80;99.90;;;;;;5072793;28;20217;-65
2022/01/10 07:29:02;;;;;;;17.43;12.93;;;0.80;99.90;;;;;;5073716;28;20628;-65
2022/01/10 07:31:29;;;;;;;15.20;12.00;;;0.80;99.90;;;;;;5073788;28;20162;-64
2022/01/10 07:33:58;;;;;;;19.90;11.90;;;0.80;99.90;;;;;;5065260;28;20537;-65
2022/01/10 07:36:24;;;;;;;23.93;12.17;;;0.80;99.90;;;;;;5053798;28;20186;-65
2022/01/10 07:38:50;;;;;;;20.60;12.13;;;0.80;99.90;;;;;;5059825;28;20185;-65
2022/01/10 07:41:16;;;;;;;22.33;14.10;;;0.90;99.90;;;;;;5055775;28;20198;-65
2022/01/10 07:43:42;;;;;;;16.80;13.17;;;0.90;99.90;;;;;;5054936;28;20261;-64
2022/01/10 07:46:08;;;;;;;14.70;12.87;;;0.90;99.90;;;;;;5074184;28;20159;-65
2022/01/10 07:48:36;;;;;;;12.13;10.97;;;0.90;99.90;;;;;;5073700;28;20784;-66
2022/01/10 07:51:03;;;;;;;26.97;12.87;;;0.90;99.90;;;;;;5073886;28;20170;-65
2022/01/10 07:53:29;;;;;;;12.87;11.60;;;0.90;99.90;;;;;;5073115;28;20240;-65
2022/01/10 07:55:55;;;;;;;17.87;11.33;;;0.90;99.90;;;;;;5073682;28;20671;-64
2022/01/10 07:58:21;;;;;;;18.50;12.73;;;0.80;99.90;;;;;;5073889;28;20172;-65
2022/01/10 08:00:47;;;;;;;13.00;11.37;;;0.80;99.90;;;;;;5073101;28;20258;-65
2022/01/10 08:03:13;;;;;;;19.90;11.43;;;0.80;99.90;;;;;;5071425;28;20227;-65
2022/01/10 08:05:38;;;;;;;14.00;12.57;;;0.80;99.90;;;;;;5072876;28;20685;-65
2022/01/10 08:08:04;;;;;;;18.37;12.87;;;0.80;99.90;;;;;;5073413;28;20253;-65
2022/01/10 08:10:30;;;;;;;18.47;12.37;;;0.80;99.90;;;;;;5055034;28;20210;-65
2022/01/10 08:12:55;;;;;;;13.97;12.70;;;0.70;99.90;;;;;;5055334;28;20197;-64
2022/01/10 08:15:21;;;;;;;22.60;13.20;;;0.70;99.90;;;;;;5073025;28;20202;-66
2022/01/10 08:17:47;;;;;;;24.03;12.87;;;0.70;99.90;;;;;;5054992;28;20174;-65
2022/01/10 08:20:13;;;;;;;20.00;12.73;;;0.80;99.90;;;;;;5072934;28;20672;-64
2022/01/10 08:22:39;;;;;;;13.97;12.10;;;0.80;99.90;;;;;;5072825;28;21096;-64
2022/01/10 08:25:07;;;;;;;16.83;11.87;;;0.90;99.90;;;;;;5072689;28;20229;-65
2022/01/10 08:27:33;;;;;;;16.43;13.20;;;1.00;99.90;;;;;;5071987;28;20170;-65
2022/01/10 08:29:59;;;;;;;20.20;12.33;;;0.90;99.90;;;;;;5072837;28;20572;-64
2022/01/10 08:32:25;;;;;;;14.47;12.17;;;1.00;99.90;;;;;;5072604;28;20174;-65
2022/01/10 08:34:50;;;;;;;14.30;12.70;;;1.10;99.90;;;;;;5067142;28;20671;-65
2022/01/10 08:37:16;;;;;;;17.37;12.00;;;1.20;99.90;;;;;;5072686;28;20212;-64
2022/01/10 08:39:42;;;;;;;19.20;13.57;;;1.20;99.90;;;;;;5072588;28;20177;-64
2022/01/10 08:42:07;;;;;;;23.93;16.20;;;1.30;99.90;;;;;;5072368;28;20198;-64
2022/01/10 08:44:33;;;;;;;30.07;16.90;;;1.40;99.90;;;;;;5072759;28;20186;-64
2022/01/10 08:46:59;;;;;;;27.73;15.97;;;1.50;99.90;;;;;;5072774;28;20188;-65
2022/01/10 08:49:25;;;;;;;23.23;16.47;;;1.60;99.90;;;;;;5072215;28;20174;-65
2022/01/10 08:51:54;;;;;;;29.03;16.83;;;1.70;99.90;;;;;;5054583;28;20561;-65
2022/01/10 08:54:22;;;;;;;24.37;16.23;;;1.80;99.90;;;;;;5072166;28;20304;-65
2022/01/10 08:56:49;;;;;;;31.23;16.43;;;1.90;99.90;;;;;;5072479;28;20295;-64
2022/01/10 08:59:14;;;;;;;23.57;16.80;;;2.10;99.90;;;;;;5072044;28;20174;-65
2022/01/10 09:01:42;;;;;;;24.90;17.17;;;2.30;99.90;;;;;;5071763;28;20209;-65
2022/01/10 09:04:15;;;;;;;22.30;15.17;;;2.50;99.90;;;;;;5071584;28;20198;-65
2022/01/10 09:06:42;;;;;;;26.80;15.67;;;3.00;99.90;;;;;;5071779;28;20253;-65
2022/01/10 09:09:08;;;;;;;17.57;12.33;;;3.40;99.90;;;;;;5072223;28;20162;-65
2022/01/10 09:11:33;;;;;;;13.77;12.27;;;3.90;99.90;;;;;;5071852;28;20197;-63
2022/01/10 09:13:59;;;;;;;17.10;12.03;;;4.30;99.90;;;;;;5071449;28;20606;-65
2022/01/10 09:16:25;;;;;;;21.47;12.07;;;4.60;99.90;;;;;;5054033;28;20200;-65
2022/01/10 09:18:50;;;;;;;17.07;12.37;;;5.10;99.90;;;;;;5071816;28;20186;-64
2022/01/10 09:21:16;;;;;;;19.10;12.60;;;5.40;99.90;;;;;;5072023;28;20560;-65
2022/01/10 09:23:41;;;;;;;15.33;12.00;;;5.80;99.90;;;;;;5071053;28;20537;-65
2022/01/10 09:26:07;;;;;;;15.60;14.00;;;6.10;99.90;;;;;;5071897;28;20165;-65
2022/01/10 09:28:33;;;;;;;13.53;11.60;;;6.50;99.90;;;;;;5070802;28;20221;-65
2022/01/10 09:30:58;;;;;;;12.53;11.13;;;6.90;99.90;;;;;;5071939;28;20662;-64
2022/01/10 09:33:24;;;;;;;13.17;11.40;;;7.30;99.90;;;;;;5071108;28;20194;-65
2022/01/10 09:35:50;;;;;;;12.70;10.43;;;7.60;99.90;;;;;;5071579;28;20662;-65
2022/01/10 09:38:15;;;;;;;12.23;10.20;;;7.80;99.90;;;;;;5070308;28;20192;-65
2022/01/10 09:40:41;;;;;;;13.57;10.37;;;8.00;99.90;;;;;;5071614;28;20182;-65
2022/01/10 09:43:08;;;;;;;13.97;10.93;;;8.20;99.90;;;;;;5071011;28;20213;-65
2022/01/10 09:45:34;;;;;;;10.30;9.30;;;8.30;99.90;;;;;;5071230;28;20247;-65
2022/01/10 09:48:00;;;;;;;9.70;8.80;;;8.50;99.90;;;;;;5071225;28;20174;-65
2022/01/10 09:50:26;;;;;;;14.30;9.50;;;8.60;99.90;;;;;;5071513;28;20181;-64
2022/01/10 09:52:51;;;;;;;12.77;10.27;;;8.70;99.90;;;;;;5070858;28;20178;-65
2022/01/10 09:55:18;;;;;;;10.70;9.07;;;8.80;99.90;;;;;;5084181;23;20230;-65
2022/01/10 09:57:44;;;;;;;18.07;10.27;;;9.10;99.90;;;;;;5050419;28;20187;-66
2022/01/10 10:00:11;;;;;;;9.03;8.13;;;9.50;99.90;;;;;;5051531;28;20181;-65
2022/01/10 10:02:38;;;;;;;11.67;8.80;;;9.80;99.90;;;;;;5033473;28;20195;-66
2022/01/10 10:05:05;;;;;;;11.20;8.70;;;10.10;99.90;;;;;;5030925;28;20686;-66
2022/01/10 10:07:31;;;;;;;10.33;8.27;;;10.60;99.90;;;;;;5047148;28;20261;-67
2022/01/10 10:10:00;;;;;;;11.47;8.40;;;10.80;99.90;;;;;;5071129;28;20779;-66
2022/01/10 10:12:29;;;;;;;10.50;7.73;;;11.20;99.90;;;;;;5070879;28;20541;-66
2022/01/10 10:14:55;;;;;;;11.53;8.43;;;11.50;99.90;;;;;;5056576;28;20195;-66
2022/01/10 10:17:22;;;;;;;12.97;8.53;;;11.60;99.90;;;;;;5051461;28;20179;-66
2022/01/10 10:19:49;;;;;;;14.67;8.60;;;11.60;99.90;;;;;;5050642;28;20186;-67
2022/01/10 10:22:16;;;;;;;11.30;8.60;;;11.90;99.90;;;;;;5050975;28;20612;-66
2022/01/10 10:24:42;;;;;;;13.27;9.10;;;11.90;99.90;;;;;;5050301;28;20289;-67
2022/01/10 10:27:08;;;;;;;9.53;8.30;;;11.90;99.90;;;;;;5055199;28;20171;-67
2022/01/10 10:29:38;;;;;;;11.53;8.03;;;11.90;99.90;;;;;;5054716;28;20174;-67
2022/01/10 10:32:04;;;;;;;14.83;8.27;;;12.30;99.90;;;;;;5054947;28;20179;-67
2022/01/10 10:34:32;;;;;;;11.73;8.37;;;12.60;99.90;;;;;;5054269;28;20272;-65
2022/01/10 10:37:03;;;;;;;11.83;8.53;;;12.90;99.90;;;;;;5054965;28;20206;-67
2022/01/10 10:39:31;;;;;;;9.27;8.30;;;13.10;99.90;;;;;;5055204;28;20586;-66
2022/01/10 10:42:02;;;;;;;11.30;8.30;;;13.40;99.90;;;;;;5054611;28;20194;-67
2022/01/10 10:44:28;;;;;;;10.60;8.50;;;13.70;99.90;;;;;;5035457;28;20278;-66
2022/01/10 10:46:56;;;;;;;12.13;8.33;;;13.90;99.90;;;;;;5035524;28;20534;-66
2022/01/10 10:49:31;;;;;;;9.53;7.53;;;14.10;99.90;;;;;;5055055;28;20250;-67
2022/01/10 10:51:59;;;;;;;9.03;8.10;;;14.30;99.90;;;;;;5054344;28;20189;-67
2022/01/10 10:54:25;;;;;;;13.03;8.30;;;14.20;99.90;;;;;;5034604;28;20249;-66
2022/01/10 10:56:50;;;;;;;11.20;7.87;;;14.40;99.90;;;;;;5034970;28;20187;-67
2022/01/10 10:59:16;;;;;;;9.13;7.97;;;14.40;99.90;;;;;;5053796;28;20553;-66
2022/01/10 11:01:42;;;;;;;10.93;8.53;;;14.10;99.90;;;;;;5054452;28;20275;-65
2022/01/10 11:04:09;;;;;;;10.23;8.30;;;13.80;99.90;;;;;;5054305;28;20619;-64
2022/01/10 11:06:36;;;;;;;11.43;9.27;;;13.30;99.90;;;;;;5054621;28;20301;-65
2022/01/10 11:09:06;;;;;;;10.37;8.10;;;12.90;99.90;;;;;;5053042;28;20175;-65
2022/01/10 11:11:32;;;;;;;9.90;8.23;;;12.60;99.90;;;;;;5054414;28;20206;-66
2022/01/10 11:14:00;;;;;;;13.77;8.83;;;12.70;99.90;;;;;;5053941;28;20182;-66
2022/01/10 11:16:26;;;;;;;15.07;9.70;;;12.70;99.90;;;;;;5054298;28;20166;-65
2022/01/10 11:18:53;;;;;;;13.10;9.13;;;12.30;99.90;;;;;;5052730;28;20186;-66
2022/01/10 11:21:19;;;;;;;15.33;9.97;;;12.20;99.90;;;;;;5054394;28;20195;-65
2022/01/10 11:23:46;;;;;;;12.73;8.80;;;12.20;99.90;;;;;;5053432;28;20182;-66
2022/01/10 11:26:13;;;;;;;14.97;9.60;;;12.20;99.90;;;;;;5054428;28;20195;-65
2022/01/10 11:28:55;;;;;;;12.90;8.77;;;12.30;99.90;;;;;;5054257;28;20179;-65
2022/01/10 11:31:23;;;;;;;11.33;8.93;;;12.20;99.90;;;;;;5054272;28;20178;-66
2022/01/10 11:33:51;;;;;;;12.20;9.57;;;12.10;99.90;;;;;;5053648;28;20182;-66
2022/01/10 11:36:20;;;;;;;13.23;9.17;;;12.10;99.90;;;;;;5053764;28;20559;-65
2022/01/10 11:38:52;;;;;;;13.30;8.17;;;12.00;99.90;;;;;;5053288;28;20205;-65
2022/01/10 11:41:30;;;;;;;12.13;9.10;;;12.00;99.90;;;;;;5052741;28;20198;-66
2022/01/10 11:44:11;;;;;;;18.53;8.40;;;12.00;99.90;;;;;;5053333;28;20265;-65
2022/01/10 11:46:48;;;;;;;12.77;8.77;;;12.00;99.90;;;;;;5053606;28;20167;-66
2022/01/10 11:49:17;;;;;;;11.37;8.13;;;11.90;99.90;;;;;;5053674;28;20747;-65
2022/01/10 11:51:43;;;;;;;12.30;8.17;;;12.00;99.90;;;;;;5052242;28;20182;-66
2022/01/10 11:54:17;;;;;;;13.03;8.93;;;12.00;99.90;;;;;;5051618;28;20179;-66
2022/01/10 11:56:45;;;;;;;9.87;8.40;;;11.90;99.90;;;;;;5052113;28;20492;-66
2022/01/10 11:59:28;;;;;;;16.73;8.87;;;12.00;99.90;;;;;;5053746;28;20616;-66
2022/01/10 12:01:54;;;;;;;14.13;10.03;;;12.00;99.90;;;;;;5053355;28;20294;-66
2022/01/10 12:04:21;;;;;;;14.10;10.53;;;11.90;99.90;;;;;;5053242;28;20282;-66
2022/01/10 12:06:47;;;;;;;15.67;10.03;;;11.50;99.90;;;;;;5052449;28;20597;-65
2022/01/10 12:09:14;;;;;;;12.30;9.50;;;11.40;99.90;;;;;;5053558;28;20656;-65
2022/01/10 12:11:40;;;;;;;12.87;10.37;;;11.00;99.90;;;;;;5051924;28;20775;-66
2022/01/10 12:14:08;;;;;;;15.97;9.73;;;10.90;99.90;;;;;;5052792;28;20183;-66
2022/01/10 12:16:34;;;;;;;12.53;9.10;;;10.90;99.90;;;;;;5053207;28;20627;-66
2022/01/10 12:19:00;;;;;;;11.57;9.53;;;11.00;99.90;;;;;;5053136;28;20183;-65
2022/01/10 12:21:26;;;;;;;20.13;11.60;;;11.10;99.90;;;;;;5053168;28;20765;-66
2022/01/10 12:23:52;;;;;;;17.30;10.83;;;11.00;99.90;;;;;;5052428;28;20171;-66
2022/01/10 12:26:20;;;;;;;15.70;10.87;;;10.80;99.90;;;;;;5053185;28;20190;-66
2022/01/10 12:28:58;;;;;;;16.40;11.17;;;10.70;99.90;;;;;;5052469;28;20190;-66
2022/01/10 12:31:26;;;;;;;22.60;11.90;;;10.70;99.90;;;;;;5052981;28;20592;-66
2022/01/10 12:33:53;;;;;;;18.27;10.93;;;10.70;99.90;;;;;;5052140;28;20258;-65
2022/01/10 12:36:21;;;;;;;15.43;11.27;;;10.80;99.90;;;;;;5052734;28;20194;-66
2022/01/10 12:38:55;;;;;;;16.33;10.97;;;10.90;99.90;;;;;;5052812;28;20171;-66
2022/01/10 12:41:21;;;;;;;13.80;11.10;;;11.00;99.90;;;;;;5052455;28;20229;-66